Hauptseite
METAR-TAF:

METAR-TAF

Flughäfen :

Miami International Airport

Miami, Florida, Vereinigte Staaten

Breite: 25-47-26N, Länge: 080-18-59W, Höhe: 3 m

Beobachtung

Neuester Wetterbericht von vor 30 Minuten, um 10:53 UTC
Wind 11 kt aus Ost
Temperatur 21°C
Luftfeuchtigkeit 56%
Luftdruck 1025 hPa
Sichtweite: 16.1 km
Durchbrochene Bewölkung in der Höhe von 5000 ft

METAR: KMIA 221053Z 09011KT 10SM BKN050 21/12 A3027 RMK AO2 SLP251 T02060122 $

Zeit: 06:23 (11:23 UTC)

Prognose

Neuester Wetterbericht von vor 2 Stunden und 12 Minuten, um 09:11 UTC
Gültige Prognose vom 22 um 09 UTC bis 23 um 12 UTC
Wind 10 kt aus Ost
Sichtweite: 10 km
Durchbrochene Bewölkung in der Höhe von 4500 ft
Durchbrochene Bewölkung in der Höhe von 6000 ft
Ab 22 um 1400 UTC
Wind 15 kt aus Ost
Sichtweite: 10 km
Aufgelockert bewölkt in der Höhe von 4000 ft

TAF: KMIA 220911Z 2209/2312 08010KT P6SM BKN045 BKN060 FM221400 09015KT P6SM SCT040

Wetterbeobachtungen und Prognosen von mehr als 4000 Flughäfen (METAR und TAF Bericht).

Die verfügbaren Stationen werden durch gelbe und rote Markierungen auf der Karte dargestellt.

Führen Sie die Maus auf sie, um den Namen der Station zu sehen.

Darauf klicken, um die Beobachtung von Wetterbeobachtungen und Prognosen zu sehen.

Um die Karte zu ändern : klicken Sie auf den grünen Tasten mit einem schwarzen Kreuz Zum Vergrößern, auf den grünen Button mit einem Gedankenstrich zu verkleinern, oder auf die grünen Pfeile für benachbarte Karten.


METAR-TAF: